sensor_id;sensor_type;location;lat;lon;timestamp;P1;durP1;ratioP1;P2;durP2;ratioP2
61806;SDS011;47726;52.766;6.606;2023-02-13T00:00:05;32.58;;;19.05;;
61806;SDS011;47726;52.766;6.606;2023-02-13T00:02:36;31.27;;;18.38;;
61806;SDS011;47726;52.766;6.606;2023-02-13T00:05:02;32.85;;;18.27;;
61806;SDS011;47726;52.766;6.606;2023-02-13T00:07:27;28.90;;;16.98;;
61806;SDS011;47726;52.766;6.606;2023-02-13T00:09:53;28.75;;;17.50;;
61806;SDS011;47726;52.766;6.606;2023-02-13T00:12:18;27.73;;;16.42;;
61806;SDS011;47726;52.766;6.606;2023-02-13T00:14:44;28.70;;;17.60;;
61806;SDS011;47726;52.766;6.606;2023-02-13T00:17:09;28.58;;;16.70;;
61806;SDS011;47726;52.766;6.606;2023-02-13T00:19:35;27.52;;;16.65;;
61806;SDS011;47726;52.766;6.606;2023-02-13T00:22:01;28.73;;;16.70;;
61806;SDS011;47726;52.766;6.606;2023-02-13T00:24:26;27.13;;;15.95;;
61806;SDS011;47726;52.766;6.606;2023-02-13T00:26:52;25.70;;;15.95;;
61806;SDS011;47726;52.766;6.606;2023-02-13T00:29:17;28.17;;;17.08;;
61806;SDS011;47726;52.766;6.606;2023-02-13T00:31:43;26.45;;;16.23;;
61806;SDS011;47726;52.766;6.606;2023-02-13T00:34:08;28.85;;;16.13;;
61806;SDS011;47726;52.766;6.606;2023-02-13T00:36:34;27.58;;;16.00;;
61806;SDS011;47726;52.766;6.606;2023-02-13T00:38:59;31.33;;;16.63;;
61806;SDS011;47726;52.766;6.606;2023-02-13T00:41:25;26.77;;;16.25;;
61806;SDS011;47726;52.766;6.606;2023-02-13T00:43:51;26.45;;;15.85;;
61806;SDS011;47726;52.766;6.606;2023-02-13T00:46:17;25.83;;;15.82;;
61806;SDS011;47726;52.766;6.606;2023-02-13T00:48:42;25.55;;;15.82;;
61806;SDS011;47726;52.766;6.606;2023-02-13T00:51:08;27.08;;;16.27;;
61806;SDS011;47726;52.766;6.606;2023-02-13T00:53:34;26.02;;;15.43;;
61806;SDS011;47726;52.766;6.606;2023-02-13T00:56:01;28.92;;;16.73;;
61806;SDS011;47726;52.766;6.606;2023-02-13T00:58:27;28.98;;;16.35;;
61806;SDS011;47726;52.766;6.606;2023-02-13T01:00:53;26.50;;;15.90;;
61806;SDS011;47726;52.766;6.606;2023-02-13T01:03:19;26.98;;;16.30;;
61806;SDS011;47726;52.766;6.606;2023-02-13T01:05:46;29.10;;;16.17;;
61806;SDS011;47726;52.766;6.606;2023-02-13T01:08:12;27.10;;;16.55;;
61806;SDS011;47726;52.766;6.606;2023-02-13T01:10:39;29.23;;;16.58;;
61806;SDS011;47726;52.766;6.606;2023-02-13T01:13:06;26.17;;;15.50;;
61806;SDS011;47726;52.766;6.606;2023-02-13T01:15:32;25.90;;;16.02;;
61806;SDS011;47726;52.766;6.606;2023-02-13T01:17:58;25.77;;;16.05;;
61806;SDS011;47726;52.766;6.606;2023-02-13T01:20:25;26.40;;;15.82;;
61806;SDS011;47726;52.766;6.606;2023-02-13T01:22:51;30.33;;;17.83;;
61806;SDS011;47726;52.766;6.606;2023-02-13T01:25:16;31.30;;;17.35;;
61806;SDS011;47726;52.766;6.606;2023-02-13T01:27:42;29.10;;;16.77;;
61806;SDS011;47726;52.766;6.606;2023-02-13T01:30:09;30.63;;;17.95;;
61806;SDS011;47726;52.766;6.606;2023-02-13T01:32:40;28.52;;;16.58;;
61806;SDS011;47726;52.766;6.606;2023-02-13T01:35:07;31.48;;;17.50;;
61806;SDS011;47726;52.766;6.606;2023-02-13T01:37:34;30.13;;;16.75;;
61806;SDS011;47726;52.766;6.606;2023-02-13T01:40:00;28.60;;;17.08;;
61806;SDS011;47726;52.766;6.606;2023-02-13T01:42:27;30.02;;;17.10;;
61806;SDS011;47726;52.766;6.606;2023-02-13T01:44:55;28.17;;;17.00;;
61806;SDS011;47726;52.766;6.606;2023-02-13T01:47:27;29.40;;;17.48;;
61806;SDS011;47726;52.766;6.606;2023-02-13T01:52:37;27.63;;;16.88;;
61806;SDS011;47726;52.766;6.606;2023-02-13T01:55:08;27.92;;;16.52;;
61806;SDS011;47726;52.766;6.606;2023-02-13T01:57:35;36.20;;;18.92;;
61806;SDS011;47726;52.766;6.606;2023-02-13T02:02:38;31.20;;;18.13;;
61806;SDS011;47726;52.766;6.606;2023-02-13T02:05:08;31.77;;;18.37;;
61806;SDS011;47726;52.766;6.606;2023-02-13T02:07:35;30.75;;;18.08;;
61806;SDS011;47726;52.766;6.606;2023-02-13T02:10:08;30.05;;;17.50;;
61806;SDS011;47726;52.766;6.606;2023-02-13T02:12:41;29.48;;;17.55;;
61806;SDS011;47726;52.766;6.606;2023-02-13T02:15:11;31.98;;;17.85;;
61806;SDS011;47726;52.766;6.606;2023-02-13T02:17:37;28.85;;;17.10;;
61806;SDS011;47726;52.766;6.606;2023-02-13T02:37:20;39.00;;;20.60;;
61806;SDS011;47726;52.766;6.606;2023-02-13T02:40:06;33.30;;;18.98;;
61806;SDS011;47726;52.766;6.606;2023-02-13T02:45:11;37.53;;;20.15;;
61806;SDS011;47726;52.766;6.606;2023-02-13T02:47:47;34.42;;;19.45;;
61806;SDS011;47726;52.766;6.606;2023-02-13T02:53:44;36.65;;;19.33;;
61806;SDS011;47726;52.766;6.606;2023-02-13T02:56:24;35.50;;;19.73;;
61806;SDS011;47726;52.766;6.606;2023-02-13T02:58:56;34.90;;;19.08;;
61806;SDS011;47726;52.766;6.606;2023-02-13T03:01:54;36.72;;;18.77;;
61806;SDS011;47726;52.766;6.606;2023-02-13T03:04:41;32.08;;;17.92;;
61806;SDS011;47726;52.766;6.606;2023-02-13T03:07:28;32.78;;;18.98;;
61806;SDS011;47726;52.766;6.606;2023-02-13T03:09:58;31.67;;;18.65;;
61806;SDS011;47726;52.766;6.606;2023-02-13T03:12:59;32.22;;;18.20;;
61806;SDS011;47726;52.766;6.606;2023-02-13T03:15:47;31.50;;;18.33;;
61806;SDS011;47726;52.766;6.606;2023-02-13T03:18:36;33.33;;;18.48;;
61806;SDS011;47726;52.766;6.606;2023-02-13T03:21:36;30.70;;;18.25;;
61806;SDS011;47726;52.766;6.606;2023-02-13T03:24:47;30.02;;;17.42;;
61806;SDS011;47726;52.766;6.606;2023-02-13T03:30:51;31.40;;;17.85;;
61806;SDS011;47726;52.766;6.606;2023-02-13T03:36:14;30.55;;;17.75;;
61806;SDS011;47726;52.766;6.606;2023-02-13T03:41:49;28.08;;;16.92;;
61806;SDS011;47726;52.766;6.606;2023-02-13T03:44:38;28.98;;;16.85;;
61806;SDS011;47726;52.766;6.606;2023-02-13T03:47:08;27.33;;;16.00;;
61806;SDS011;47726;52.766;6.606;2023-02-13T03:49:38;28.63;;;16.77;;
61806;SDS011;47726;52.766;6.606;2023-02-13T03:52:35;27.98;;;16.55;;
61806;SDS011;47726;52.766;6.606;2023-02-13T03:55:26;29.30;;;17.38;;
61806;SDS011;47726;52.766;6.606;2023-02-13T03:58:27;27.08;;;16.10;;
61806;SDS011;47726;52.766;6.606;2023-02-13T04:01:15;26.85;;;16.10;;
61806;SDS011;47726;52.766;6.606;2023-02-13T04:06:51;24.58;;;15.32;;
61806;SDS011;47726;52.766;6.606;2023-02-13T04:12:10;26.35;;;16.27;;
61806;SDS011;47726;52.766;6.606;2023-02-13T04:14:47;26.13;;;15.68;;
61806;SDS011;47726;52.766;6.606;2023-02-13T04:17:23;26.25;;;15.45;;
61806;SDS011;47726;52.766;6.606;2023-02-13T04:19:57;26.90;;;16.00;;
61806;SDS011;47726;52.766;6.606;2023-02-13T04:22:23;25.13;;;15.30;;
61806;SDS011;47726;52.766;6.606;2023-02-13T04:24:48;26.63;;;15.75;;
61806;SDS011;47726;52.766;6.606;2023-02-13T04:27:14;24.25;;;15.50;;
61806;SDS011;47726;52.766;6.606;2023-02-13T04:29:41;23.23;;;15.27;;
61806;SDS011;47726;52.766;6.606;2023-02-13T04:32:08;26.35;;;16.02;;
61806;SDS011;47726;52.766;6.606;2023-02-13T04:34:34;27.80;;;15.68;;
61806;SDS011;47726;52.766;6.606;2023-02-13T04:37:00;23.58;;;15.05;;
61806;SDS011;47726;52.766;6.606;2023-02-13T04:39:25;26.42;;;16.10;;
61806;SDS011;47726;52.766;6.606;2023-02-13T04:41:51;24.60;;;15.20;;
61806;SDS011;47726;52.766;6.606;2023-02-13T04:44:16;24.88;;;15.27;;
61806;SDS011;47726;52.766;6.606;2023-02-13T04:46:42;27.80;;;16.25;;
61806;SDS011;47726;52.766;6.606;2023-02-13T04:49:08;26.52;;;15.50;;
61806;SDS011;47726;52.766;6.606;2023-02-13T04:51:34;26.63;;;16.08;;
61806;SDS011;47726;52.766;6.606;2023-02-13T04:54:00;25.48;;;15.23;;
61806;SDS011;47726;52.766;6.606;2023-02-13T04:56:26;24.67;;;15.68;;
61806;SDS011;47726;52.766;6.606;2023-02-13T04:58:51;24.60;;;15.00;;
61806;SDS011;47726;52.766;6.606;2023-02-13T05:01:18;25.27;;;15.40;;
61806;SDS011;47726;52.766;6.606;2023-02-13T05:03:44;23.63;;;15.63;;
61806;SDS011;47726;52.766;6.606;2023-02-13T05:06:09;25.15;;;15.55;;
61806;SDS011;47726;52.766;6.606;2023-02-13T05:08:35;24.83;;;15.00;;
61806;SDS011;47726;52.766;6.606;2023-02-13T05:11:00;25.23;;;16.10;;
61806;SDS011;47726;52.766;6.606;2023-02-13T05:13:26;24.42;;;14.48;;
61806;SDS011;47726;52.766;6.606;2023-02-13T05:15:51;23.80;;;15.05;;
61806;SDS011;47726;52.766;6.606;2023-02-13T05:18:17;25.85;;;16.35;;
61806;SDS011;47726;52.766;6.606;2023-02-13T05:20:43;23.70;;;14.98;;
61806;SDS011;47726;52.766;6.606;2023-02-13T05:23:13;22.42;;;14.32;;
61806;SDS011;47726;52.766;6.606;2023-02-13T05:25:48;25.42;;;14.82;;
61806;SDS011;47726;52.766;6.606;2023-02-13T05:28:14;24.13;;;15.60;;
61806;SDS011;47726;52.766;6.606;2023-02-13T05:30:58;23.52;;;15.45;;
61806;SDS011;47726;52.766;6.606;2023-02-13T05:33:24;23.95;;;14.90;;
61806;SDS011;47726;52.766;6.606;2023-02-13T05:35:50;24.08;;;15.00;;
61806;SDS011;47726;52.766;6.606;2023-02-13T05:38:15;23.90;;;15.55;;
61806;SDS011;47726;52.766;6.606;2023-02-13T05:40:41;25.25;;;15.40;;
61806;SDS011;47726;52.766;6.606;2023-02-13T05:43:06;25.25;;;15.93;;
61806;SDS011;47726;52.766;6.606;2023-02-13T05:45:35;23.30;;;14.98;;
61806;SDS011;47726;52.766;6.606;2023-02-13T05:48:01;25.13;;;14.98;;
61806;SDS011;47726;52.766;6.606;2023-02-13T05:50:26;23.60;;;14.15;;
61806;SDS011;47726;52.766;6.606;2023-02-13T05:52:52;24.40;;;15.77;;
61806;SDS011;47726;52.766;6.606;2023-02-13T05:55:17;24.55;;;15.05;;
61806;SDS011;47726;52.766;6.606;2023-02-13T05:57:43;23.63;;;14.98;;
61806;SDS011;47726;52.766;6.606;2023-02-13T06:00:08;26.63;;;15.38;;
61806;SDS011;47726;52.766;6.606;2023-02-13T06:02:34;26.17;;;15.30;;
61806;SDS011;47726;52.766;6.606;2023-02-13T06:05:00;24.50;;;15.27;;
61806;SDS011;47726;52.766;6.606;2023-02-13T06:07:25;27.52;;;14.95;;
61806;SDS011;47726;52.766;6.606;2023-02-13T06:09:51;24.25;;;15.75;;
61806;SDS011;47726;52.766;6.606;2023-02-13T06:12:16;25.05;;;15.48;;
61806;SDS011;47726;52.766;6.606;2023-02-13T06:14:42;24.75;;;15.55;;
61806;SDS011;47726;52.766;6.606;2023-02-13T06:17:07;26.80;;;15.88;;
61806;SDS011;47726;52.766;6.606;2023-02-13T06:19:33;25.90;;;16.00;;
61806;SDS011;47726;52.766;6.606;2023-02-13T06:21:58;25.27;;;15.23;;
61806;SDS011;47726;52.766;6.606;2023-02-13T06:24:24;24.08;;;15.23;;
61806;SDS011;47726;52.766;6.606;2023-02-13T06:26:50;24.27;;;15.55;;
61806;SDS011;47726;52.766;6.606;2023-02-13T06:29:15;24.52;;;16.05;;
61806;SDS011;47726;52.766;6.606;2023-02-13T06:31:41;26.45;;;15.65;;
61806;SDS011;47726;52.766;6.606;2023-02-13T06:34:06;25.30;;;16.25;;
61806;SDS011;47726;52.766;6.606;2023-02-13T06:36:32;24.98;;;14.95;;
61806;SDS011;47726;52.766;6.606;2023-02-13T06:38:58;24.02;;;14.98;;
61806;SDS011;47726;52.766;6.606;2023-02-13T06:41:23;25.95;;;15.70;;
61806;SDS011;47726;52.766;6.606;2023-02-13T06:43:49;25.00;;;14.88;;
61806;SDS011;47726;52.766;6.606;2023-02-13T06:46:15;24.77;;;15.60;;
61806;SDS011;47726;52.766;6.606;2023-02-13T06:48:40;26.23;;;16.38;;
61806;SDS011;47726;52.766;6.606;2023-02-13T06:51:06;26.35;;;16.20;;
61806;SDS011;47726;52.766;6.606;2023-02-13T06:53:31;24.70;;;15.88;;
61806;SDS011;47726;52.766;6.606;2023-02-13T06:55:57;25.88;;;15.63;;
61806;SDS011;47726;52.766;6.606;2023-02-13T06:58:23;25.95;;;16.20;;
61806;SDS011;47726;52.766;6.606;2023-02-13T07:00:50;27.45;;;17.77;;
61806;SDS011;47726;52.766;6.606;2023-02-13T07:03:16;26.95;;;17.20;;
61806;SDS011;47726;52.766;6.606;2023-02-13T07:05:44;28.88;;;16.73;;
61806;SDS011;47726;52.766;6.606;2023-02-13T07:08:10;26.13;;;16.55;;
61806;SDS011;47726;52.766;6.606;2023-02-13T07:10:37;26.65;;;16.88;;
61806;SDS011;47726;52.766;6.606;2023-02-13T07:13:04;24.40;;;15.80;;
61806;SDS011;47726;52.766;6.606;2023-02-13T07:15:30;24.58;;;16.23;;
61806;SDS011;47726;52.766;6.606;2023-02-13T07:17:57;27.05;;;16.50;;
61806;SDS011;47726;52.766;6.606;2023-02-13T07:20:24;28.23;;;17.25;;
61806;SDS011;47726;52.766;6.606;2023-02-13T07:22:50;26.15;;;15.98;;
61806;SDS011;47726;52.766;6.606;2023-02-13T07:25:15;27.55;;;17.05;;
61806;SDS011;47726;52.766;6.606;2023-02-13T07:27:41;27.05;;;16.45;;
61806;SDS011;47726;52.766;6.606;2023-02-13T07:30:07;27.40;;;16.90;;
61806;SDS011;47726;52.766;6.606;2023-02-13T07:32:33;26.98;;;16.75;;
61806;SDS011;47726;52.766;6.606;2023-02-13T07:34:59;26.95;;;16.10;;
61806;SDS011;47726;52.766;6.606;2023-02-13T07:37:26;29.98;;;17.67;;
61806;SDS011;47726;52.766;6.606;2023-02-13T07:39:52;27.55;;;16.05;;
61806;SDS011;47726;52.766;6.606;2023-02-13T07:42:18;26.42;;;16.05;;
61806;SDS011;47726;52.766;6.606;2023-02-13T07:44:43;27.38;;;16.88;;
61806;SDS011;47726;52.766;6.606;2023-02-13T07:47:09;26.88;;;16.15;;
61806;SDS011;47726;52.766;6.606;2023-02-13T07:49:34;26.98;;;16.90;;
61806;SDS011;47726;52.766;6.606;2023-02-13T07:52:01;27.50;;;17.08;;
61806;SDS011;47726;52.766;6.606;2023-02-13T07:54:27;29.25;;;16.60;;
61806;SDS011;47726;52.766;6.606;2023-02-13T07:56:53;29.70;;;16.92;;
61806;SDS011;47726;52.766;6.606;2023-02-13T07:59:18;26.83;;;16.67;;
61806;SDS011;47726;52.766;6.606;2023-02-13T08:01:44;29.20;;;17.90;;
61806;SDS011;47726;52.766;6.606;2023-02-13T08:04:10;29.67;;;17.52;;
61806;SDS011;47726;52.766;6.606;2023-02-13T08:06:37;27.15;;;15.88;;
61806;SDS011;47726;52.766;6.606;2023-02-13T08:09:04;27.75;;;16.75;;
61806;SDS011;47726;52.766;6.606;2023-02-13T08:11:49;27.63;;;16.38;;
61806;SDS011;47726;52.766;6.606;2023-02-13T08:14:20;30.63;;;16.85;;
61806;SDS011;47726;52.766;6.606;2023-02-13T08:16:50;26.20;;;16.10;;
61806;SDS011;47726;52.766;6.606;2023-02-13T08:19:16;27.48;;;16.50;;
61806;SDS011;47726;52.766;6.606;2023-02-13T08:21:42;27.75;;;16.02;;
61806;SDS011;47726;52.766;6.606;2023-02-13T08:24:07;27.25;;;15.75;;
61806;SDS011;47726;52.766;6.606;2023-02-13T08:26:33;22.90;;;13.43;;
61806;SDS011;47726;52.766;6.606;2023-02-13T08:28:59;28.27;;;17.33;;
61806;SDS011;47726;52.766;6.606;2023-02-13T08:31:25;26.33;;;15.43;;
61806;SDS011;47726;52.766;6.606;2023-02-13T08:33:50;27.35;;;16.00;;
61806;SDS011;47726;52.766;6.606;2023-02-13T08:36:16;27.77;;;15.68;;
61806;SDS011;47726;52.766;6.606;2023-02-13T08:38:45;26.50;;;15.68;;
61806;SDS011;47726;52.766;6.606;2023-02-13T08:41:11;25.67;;;15.25;;
61806;SDS011;47726;52.766;6.606;2023-02-13T08:43:37;26.65;;;15.85;;
61806;SDS011;47726;52.766;6.606;2023-02-13T08:46:02;27.58;;;16.90;;
61806;SDS011;47726;52.766;6.606;2023-02-13T08:48:28;27.67;;;16.45;;
61806;SDS011;47726;52.766;6.606;2023-02-13T08:50:54;30.45;;;16.92;;
61806;SDS011;47726;52.766;6.606;2023-02-13T08:53:19;29.50;;;16.52;;
61806;SDS011;47726;52.766;6.606;2023-02-13T08:55:55;27.75;;;16.20;;
61806;SDS011;47726;52.766;6.606;2023-02-13T08:58:21;27.13;;;15.65;;
61806;SDS011;47726;52.766;6.606;2023-02-13T09:00:47;26.48;;;15.48;;
61806;SDS011;47726;52.766;6.606;2023-02-13T09:03:13;27.52;;;16.08;;
61806;SDS011;47726;52.766;6.606;2023-02-13T09:05:39;27.30;;;16.35;;
61806;SDS011;47726;52.766;6.606;2023-02-13T09:08:05;24.75;;;14.90;;
61806;SDS011;47726;52.766;6.606;2023-02-13T09:10:32;27.80;;;15.90;;
61806;SDS011;47726;52.766;6.606;2023-02-13T09:12:58;26.70;;;15.93;;
61806;SDS011;47726;52.766;6.606;2023-02-13T09:15:25;28.25;;;16.58;;
61806;SDS011;47726;52.766;6.606;2023-02-13T09:17:51;27.63;;;16.05;;
61806;SDS011;47726;52.766;6.606;2023-02-13T09:20:17;27.35;;;15.80;;
61806;SDS011;47726;52.766;6.606;2023-02-13T09:22:43;26.65;;;14.93;;
61806;SDS011;47726;52.766;6.606;2023-02-13T09:25:09;28.17;;;16.60;;
61806;SDS011;47726;52.766;6.606;2023-02-13T09:27:34;27.75;;;15.82;;
61806;SDS011;47726;52.766;6.606;2023-02-13T09:30:01;26.67;;;15.68;;
61806;SDS011;47726;52.766;6.606;2023-02-13T09:32:27;26.73;;;15.90;;
61806;SDS011;47726;52.766;6.606;2023-02-13T09:34:53;26.52;;;15.98;;
61806;SDS011;47726;52.766;6.606;2023-02-13T09:37:18;28.38;;;16.17;;
61806;SDS011;47726;52.766;6.606;2023-02-13T09:39:44;29.00;;;16.02;;
61806;SDS011;47726;52.766;6.606;2023-02-13T09:42:29;26.27;;;16.13;;
61806;SDS011;47726;52.766;6.606;2023-02-13T09:45:02;27.45;;;15.65;;
61806;SDS011;47726;52.766;6.606;2023-02-13T09:47:33;27.27;;;16.67;;
61806;SDS011;47726;52.766;6.606;2023-02-13T09:50:10;27.52;;;16.55;;
61806;SDS011;47726;52.766;6.606;2023-02-13T09:52:42;28.20;;;16.50;;
61806;SDS011;47726;52.766;6.606;2023-02-13T09:55:13;26.25;;;16.00;;
61806;SDS011;47726;52.766;6.606;2023-02-13T09:57:46;29.75;;;17.05;;
61806;SDS011;47726;52.766;6.606;2023-02-13T10:16:09;29.05;;;17.20;;
61806;SDS011;47726;52.766;6.606;2023-02-13T10:19:00;29.23;;;17.02;;
61806;SDS011;47726;52.766;6.606;2023-02-13T10:21:36;28.20;;;17.02;;
61806;SDS011;47726;52.766;6.606;2023-02-13T10:24:10;28.55;;;17.35;;
61806;SDS011;47726;52.766;6.606;2023-02-13T10:26:41;30.45;;;17.75;;
61806;SDS011;47726;52.766;6.606;2023-02-13T10:31:59;35.78;;;18.30;;
61806;SDS011;47726;52.766;6.606;2023-02-13T10:34:30;28.85;;;17.88;;
61806;SDS011;47726;52.766;6.606;2023-02-13T10:37:02;32.75;;;19.73;;
61806;SDS011;47726;52.766;6.606;2023-02-13T10:39:36;31.58;;;18.38;;
61806;SDS011;47726;52.766;6.606;2023-02-13T10:42:05;31.63;;;19.13;;
61806;SDS011;47726;52.766;6.606;2023-02-13T10:44:48;32.25;;;19.95;;
61806;SDS011;47726;52.766;6.606;2023-02-13T10:56:01;31.67;;;20.20;;
61806;SDS011;47726;52.766;6.606;2023-02-13T11:01:52;33.85;;;19.55;;
61806;SDS011;47726;52.766;6.606;2023-02-13T11:04:21;33.45;;;19.48;;
61806;SDS011;47726;52.766;6.606;2023-02-13T11:06:50;35.63;;;20.95;;
61806;SDS011;47726;52.766;6.606;2023-02-13T11:09:21;32.92;;;20.15;;
61806;SDS011;47726;52.766;6.606;2023-02-13T11:11:48;34.40;;;20.55;;
61806;SDS011;47726;52.766;6.606;2023-02-13T11:14:18;34.28;;;20.50;;
61806;SDS011;47726;52.766;6.606;2023-02-13T11:16:53;32.28;;;20.27;;
61806;SDS011;47726;52.766;6.606;2023-02-13T11:19:37;34.72;;;20.27;;
61806;SDS011;47726;52.766;6.606;2023-02-13T11:22:26;31.85;;;20.42;;
61806;SDS011;47726;52.766;6.606;2023-02-13T11:24:57;34.47;;;22.15;;
61806;SDS011;47726;52.766;6.606;2023-02-13T11:27:26;33.45;;;21.58;;
61806;SDS011;47726;52.766;6.606;2023-02-13T11:29:57;32.08;;;20.45;;
61806;SDS011;47726;52.766;6.606;2023-02-13T11:32:25;32.25;;;21.42;;
61806;SDS011;47726;52.766;6.606;2023-02-13T11:34:52;34.22;;;22.10;;
61806;SDS011;47726;52.766;6.606;2023-02-13T11:37:22;32.78;;;21.42;;
61806;SDS011;47726;52.766;6.606;2023-02-13T11:39:54;32.88;;;22.00;;
61806;SDS011;47726;52.766;6.606;2023-02-13T11:42:34;33.05;;;22.30;;
61806;SDS011;47726;52.766;6.606;2023-02-13T11:47:32;34.75;;;22.55;;
61806;SDS011;47726;52.766;6.606;2023-02-13T11:53:00;33.38;;;23.20;;
61806;SDS011;47726;52.766;6.606;2023-02-13T11:55:35;35.95;;;24.42;;
61806;SDS011;47726;52.766;6.606;2023-02-13T11:58:03;36.08;;;23.38;;
61806;SDS011;47726;52.766;6.606;2023-02-13T12:00:37;34.72;;;23.73;;
61806;SDS011;47726;52.766;6.606;2023-02-13T12:03:26;34.22;;;23.70;;
61806;SDS011;47726;52.766;6.606;2023-02-13T12:08:47;35.42;;;24.13;;
61806;SDS011;47726;52.766;6.606;2023-02-13T12:13:48;36.75;;;24.25;;
61806;SDS011;47726;52.766;6.606;2023-02-13T12:16:20;37.67;;;24.50;;
61806;SDS011;47726;52.766;6.606;2023-02-13T12:18:49;36.13;;;24.20;;
61806;SDS011;47726;52.766;6.606;2023-02-13T12:24:02;36.88;;;25.00;;
61806;SDS011;47726;52.766;6.606;2023-02-13T12:26:50;34.85;;;23.38;;
61806;SDS011;47726;52.766;6.606;2023-02-13T12:32:53;33.45;;;24.23;;
61806;SDS011;47726;52.766;6.606;2023-02-13T12:41:21;31.17;;;23.77;;
61806;SDS011;47726;52.766;6.606;2023-02-13T12:46:56;33.95;;;24.90;;
61806;SDS011;47726;52.766;6.606;2023-02-13T12:52:27;33.55;;;24.33;;
61806;SDS011;47726;52.766;6.606;2023-02-13T13:08:46;34.47;;;24.48;;
61806;SDS011;47726;52.766;6.606;2023-02-13T13:11:34;34.47;;;24.95;;
61806;SDS011;47726;52.766;6.606;2023-02-13T13:20:02;33.10;;;25.42;;
61806;SDS011;47726;52.766;6.606;2023-02-13T13:22:47;31.63;;;24.83;;
61806;SDS011;47726;52.766;6.606;2023-02-13T13:27:51;31.48;;;24.48;;
61806;SDS011;47726;52.766;6.606;2023-02-13T13:30:23;33.55;;;24.58;;
61806;SDS011;47726;52.766;6.606;2023-02-13T13:32:57;31.17;;;24.30;;
61806;SDS011;47726;52.766;6.606;2023-02-13T13:35:26;32.83;;;25.70;;
61806;SDS011;47726;52.766;6.606;2023-02-13T13:37:55;33.05;;;25.73;;
61806;SDS011;47726;52.766;6.606;2023-02-13T13:43:23;32.60;;;25.27;;
61806;SDS011;47726;52.766;6.606;2023-02-13T13:51:41;31.50;;;24.85;;
61806;SDS011;47726;52.766;6.606;2023-02-13T13:59:17;32.80;;;24.90;;
61806;SDS011;47726;52.766;6.606;2023-02-13T14:07:32;29.95;;;23.73;;
61806;SDS011;47726;52.766;6.606;2023-02-13T14:10:00;29.23;;;23.25;;
61806;SDS011;47726;52.766;6.606;2023-02-13T14:14:57;29.10;;;23.35;;
61806;SDS011;47726;52.766;6.606;2023-02-13T14:20:42;31.10;;;23.83;;
61806;SDS011;47726;52.766;6.606;2023-02-13T14:25:41;31.30;;;24.05;;
61806;SDS011;47726;52.766;6.606;2023-02-13T14:28:15;28.92;;;23.50;;
61806;SDS011;47726;52.766;6.606;2023-02-13T14:30:48;28.35;;;22.27;;
61806;SDS011;47726;52.766;6.606;2023-02-13T14:33:23;27.75;;;22.42;;
61806;SDS011;47726;52.766;6.606;2023-02-13T14:35:58;28.95;;;23.40;;
61806;SDS011;47726;52.766;6.606;2023-02-13T14:38:32;32.67;;;24.38;;
61806;SDS011;47726;52.766;6.606;2023-02-13T14:40:59;31.45;;;24.90;;
61806;SDS011;47726;52.766;6.606;2023-02-13T14:43:38;29.60;;;24.15;;
61806;SDS011;47726;52.766;6.606;2023-02-13T14:46:17;30.88;;;24.45;;
61806;SDS011;47726;52.766;6.606;2023-02-13T14:48:55;32.75;;;24.25;;
61806;SDS011;47726;52.766;6.606;2023-02-13T14:51:33;30.15;;;23.95;;
61806;SDS011;47726;52.766;6.606;2023-02-13T14:54:03;31.15;;;24.25;;
61806;SDS011;47726;52.766;6.606;2023-02-13T14:56:50;31.60;;;24.45;;
61806;SDS011;47726;52.766;6.606;2023-02-13T14:59:19;32.08;;;24.70;;
61806;SDS011;47726;52.766;6.606;2023-02-13T15:01:52;32.97;;;24.80;;
61806;SDS011;47726;52.766;6.606;2023-02-13T15:07:06;31.70;;;24.55;;
61806;SDS011;47726;52.766;6.606;2023-02-13T15:09:40;32.92;;;25.70;;
61806;SDS011;47726;52.766;6.606;2023-02-13T15:14:56;30.40;;;24.23;;
61806;SDS011;47726;52.766;6.606;2023-02-13T15:17:25;32.67;;;25.85;;
61806;SDS011;47726;52.766;6.606;2023-02-13T15:19:55;34.88;;;25.70;;
61806;SDS011;47726;52.766;6.606;2023-02-13T15:22:38;32.08;;;24.50;;
61806;SDS011;47726;52.766;6.606;2023-02-13T15:25:19;32.20;;;25.38;;
61806;SDS011;47726;52.766;6.606;2023-02-13T15:27:50;31.90;;;25.15;;
61806;SDS011;47726;52.766;6.606;2023-02-13T15:30:24;33.47;;;25.27;;
61806;SDS011;47726;52.766;6.606;2023-02-13T15:35:26;32.28;;;25.20;;
61806;SDS011;47726;52.766;6.606;2023-02-13T15:37:57;32.45;;;25.63;;
61806;SDS011;47726;52.766;6.606;2023-02-13T15:42:51;34.83;;;26.40;;
61806;SDS011;47726;52.766;6.606;2023-02-13T15:45:17;35.03;;;27.45;;
61806;SDS011;47726;52.766;6.606;2023-02-13T15:47:44;33.58;;;26.05;;
61806;SDS011;47726;52.766;6.606;2023-02-13T15:52:48;33.33;;;27.10;;
61806;SDS011;47726;52.766;6.606;2023-02-13T15:55:19;33.20;;;26.75;;
61806;SDS011;47726;52.766;6.606;2023-02-13T15:57:50;35.35;;;25.85;;
61806;SDS011;47726;52.766;6.606;2023-02-13T16:00:27;35.00;;;26.23;;
61806;SDS011;47726;52.766;6.606;2023-02-13T16:03:00;34.42;;;26.13;;
61806;SDS011;47726;52.766;6.606;2023-02-13T16:05:29;30.50;;;24.73;;
61806;SDS011;47726;52.766;6.606;2023-02-13T16:08:01;33.88;;;26.48;;
61806;SDS011;47726;52.766;6.606;2023-02-13T16:10:31;31.85;;;25.48;;
61806;SDS011;47726;52.766;6.606;2023-02-13T16:13:00;32.13;;;25.90;;
61806;SDS011;47726;52.766;6.606;2023-02-13T16:15:29;30.92;;;24.98;;
61806;SDS011;47726;52.766;6.606;2023-02-13T16:17:57;34.28;;;26.10;;
61806;SDS011;47726;52.766;6.606;2023-02-13T16:20:24;31.20;;;24.80;;
61806;SDS011;47726;52.766;6.606;2023-02-13T16:23:04;30.25;;;25.10;;
61806;SDS011;47726;52.766;6.606;2023-02-13T16:25:37;32.10;;;25.67;;
61806;SDS011;47726;52.766;6.606;2023-02-13T16:28:23;32.78;;;25.67;;
61806;SDS011;47726;52.766;6.606;2023-02-13T16:31:00;32.28;;;24.80;;
61806;SDS011;47726;52.766;6.606;2023-02-13T16:33:27;32.50;;;25.20;;
61806;SDS011;47726;52.766;6.606;2023-02-13T16:35:58;30.30;;;24.30;;
61806;SDS011;47726;52.766;6.606;2023-02-13T16:38:49;30.55;;;24.65;;
61806;SDS011;47726;52.766;6.606;2023-02-13T16:43:57;30.85;;;24.77;;
61806;SDS011;47726;52.766;6.606;2023-02-13T16:51:23;29.02;;;24.55;;
61806;SDS011;47726;52.766;6.606;2023-02-13T16:54:00;32.05;;;25.00;;
61806;SDS011;47726;52.766;6.606;2023-02-13T16:56:35;33.38;;;26.35;;
61806;SDS011;47726;52.766;6.606;2023-02-13T17:02:28;33.67;;;26.70;;
61806;SDS011;47726;52.766;6.606;2023-02-13T17:10:06;33.22;;;26.88;;
61806;SDS011;47726;52.766;6.606;2023-02-13T17:12:46;35.88;;;28.75;;
61806;SDS011;47726;52.766;6.606;2023-02-13T17:15:14;36.25;;;29.48;;
61806;SDS011;47726;52.766;6.606;2023-02-13T17:17:44;36.08;;;28.58;;
61806;SDS011;47726;52.766;6.606;2023-02-13T17:20:14;37.28;;;29.13;;
61806;SDS011;47726;52.766;6.606;2023-02-13T17:22:42;37.50;;;29.30;;
61806;SDS011;47726;52.766;6.606;2023-02-13T17:25:17;36.85;;;27.58;;
61806;SDS011;47726;52.766;6.606;2023-02-13T17:27:48;36.60;;;27.75;;
61806;SDS011;47726;52.766;6.606;2023-02-13T17:30:19;35.38;;;28.13;;
61806;SDS011;47726;52.766;6.606;2023-02-13T17:32:51;34.25;;;26.98;;
61806;SDS011;47726;52.766;6.606;2023-02-13T17:35:21;34.45;;;27.50;;
61806;SDS011;47726;52.766;6.606;2023-02-13T17:37:47;34.08;;;27.13;;
61806;SDS011;47726;52.766;6.606;2023-02-13T17:40:16;34.58;;;27.08;;